createdAt,value
2023-01-13T00:01:20.994Z,6.43
2023-01-13T00:03:49.195Z,5.93
2023-01-13T00:06:17.788Z,7.10
2023-01-13T00:08:45.849Z,7.03
2023-01-13T00:11:13.504Z,8.03
2023-01-13T00:13:43.627Z,6.33
2023-01-13T00:16:13.483Z,6.30
2023-01-13T00:18:41.589Z,7.13
2023-01-13T00:21:12.002Z,7.13
2023-01-13T00:23:40.438Z,5.50
2023-01-13T00:26:09.145Z,5.87
2023-01-13T00:28:37.309Z,5.53
2023-01-13T00:31:10.679Z,6.27
2023-01-13T00:33:39.447Z,6.23
2023-01-13T00:36:12.469Z,6.23
2023-01-13T00:38:40.785Z,6.63
2023-01-13T00:41:09.773Z,6.77
2023-01-13T00:43:37.062Z,6.73
2023-01-13T00:46:06.743Z,5.87
2023-01-13T00:48:36.445Z,6.77
2023-01-13T00:51:04.900Z,7.33
2023-01-13T00:53:35.122Z,7.03
2023-01-13T00:56:03.335Z,6.47
2023-01-13T00:58:32.793Z,7.33
2023-01-13T01:01:01.757Z,7.43
2023-01-13T01:03:29.943Z,6.90
2023-01-13T01:05:59.407Z,6.80
2023-01-13T01:08:27.110Z,6.57
2023-01-13T01:11:02.375Z,5.83
2023-01-13T01:13:30.689Z,7.33
2023-01-13T01:15:59.840Z,8.33
2023-01-13T01:18:27.922Z,8.60
2023-01-13T01:20:56.041Z,9.27
2023-01-13T01:23:25.161Z,7.43
2023-01-13T01:25:52.842Z,8.00
2023-01-13T01:28:21.027Z,8.60
2023-01-13T01:30:48.835Z,8.13
2023-01-13T01:33:17.152Z,7.53
2023-01-13T01:35:45.236Z,7.37
2023-01-13T01:38:13.023Z,6.83
2023-01-13T01:40:42.223Z,8.97
2023-01-13T01:43:31.637Z,7.63
2023-01-13T01:45:59.377Z,7.37
2023-01-13T01:48:28.044Z,6.20
2023-01-13T01:50:56.054Z,6.70
2023-01-13T01:53:25.517Z,6.23
2023-01-13T01:55:55.355Z,7.80
2023-01-13T01:58:24.407Z,7.43
2023-01-13T02:00:52.400Z,6.23
2023-01-13T02:03:20.572Z,6.50
2023-01-13T02:05:48.796Z,5.87
2023-01-13T02:08:16.680Z,6.07
2023-01-13T02:10:46.957Z,7.57
2023-01-13T02:13:15.104Z,6.43
2023-01-13T02:15:45.534Z,7.03
2023-01-13T02:18:22.123Z,7.33
2023-01-13T02:20:54.477Z,7.07
2023-01-13T02:23:54.472Z,6.57
2023-01-13T02:26:30.607Z,6.17
2023-01-13T02:29:27.476Z,5.97
2023-01-13T02:32:00.782Z,6.17
2023-01-13T02:34:34.871Z,6.97
2023-01-13T02:37:05.809Z,6.80
2023-01-13T02:39:35.401Z,5.27
2023-01-13T02:42:23.198Z,5.67
2023-01-13T02:44:53.431Z,6.40
2023-01-13T02:47:23.738Z,6.13
2023-01-13T02:49:54.157Z,5.93
2023-01-13T02:52:24.328Z,5.80
2023-01-13T02:54:54.592Z,6.53
2023-01-13T02:57:24.953Z,6.27
2023-01-13T02:59:55.332Z,5.83
2023-01-13T03:02:25.609Z,5.80
2023-01-13T03:04:54.902Z,6.10
2023-01-13T03:07:37.486Z,5.80
2023-01-13T03:10:09.040Z,5.70
2023-01-13T03:12:42.733Z,6.60
2023-01-13T03:15:15.861Z,6.43
2023-01-13T03:17:50.871Z,5.80
2023-01-13T03:20:23.131Z,5.73
2023-01-13T03:23:03.435Z,5.77
2023-01-13T03:25:32.321Z,7.43
2023-01-13T03:28:03.750Z,6.70
2023-01-13T03:30:33.446Z,6.43
2023-01-13T03:33:04.218Z,7.00
2023-01-13T03:35:33.652Z,6.30
2023-01-13T03:38:04.398Z,7.60
2023-01-13T03:40:34.388Z,9.40
2023-01-13T03:43:22.259Z,7.13
2023-01-13T03:45:52.918Z,5.77
2023-01-13T03:48:25.698Z,6.00
2023-01-13T03:50:54.759Z,5.13
2023-01-13T03:53:24.637Z,7.07
2023-01-13T03:55:55.413Z,5.07
2023-01-13T03:58:25.059Z,6.00
2023-01-13T04:00:57.312Z,5.90
2023-01-13T04:03:28.588Z,5.37
2023-01-13T04:06:13.507Z,4.97
2023-01-13T04:08:43.443Z,5.70
2023-01-13T04:11:13.109Z,6.17
2023-01-13T04:13:43.224Z,5.33
2023-01-13T04:16:12.323Z,7.07
2023-01-13T04:18:42.929Z,5.63
2023-01-13T04:21:10.777Z,5.63
2023-01-13T04:23:38.577Z,6.00
2023-01-13T04:26:06.449Z,6.27
2023-01-13T04:28:35.132Z,6.37
2023-01-13T04:31:02.963Z,5.07
2023-01-13T04:33:31.211Z,6.63
2023-01-13T04:36:00.341Z,4.83
2023-01-13T04:38:28.116Z,6.37
2023-01-13T04:40:55.905Z,5.30
2023-01-13T04:43:23.705Z,6.07
2023-01-13T04:45:52.423Z,6.63
2023-01-13T04:48:20.193Z,5.03
2023-01-13T04:50:47.878Z,5.67
2023-01-13T04:53:18.333Z,5.50
2023-01-13T04:55:47.895Z,5.47
2023-01-13T04:58:16.002Z,6.67
2023-01-13T05:00:44.232Z,5.67
2023-01-13T05:03:12.159Z,5.47
2023-01-13T05:05:40.649Z,5.57
2023-01-13T05:08:09.197Z,5.60
2023-01-13T05:10:38.430Z,5.67
2023-01-13T05:13:25.922Z,4.07
2023-01-13T05:16:19.863Z,6.67
2023-01-13T05:18:47.725Z,6.43
2023-01-13T05:21:29.331Z,8.97
2023-01-13T05:24:14.852Z,6.27
2023-01-13T05:26:44.007Z,5.57
2023-01-13T05:29:13.302Z,7.27
2023-01-13T05:31:41.072Z,6.00
2023-01-13T05:34:08.779Z,5.17
2023-01-13T05:36:36.587Z,5.77
2023-01-13T05:39:05.492Z,7.40
2023-01-13T05:41:50.799Z,7.97
2023-01-13T05:44:20.054Z,6.07
2023-01-13T05:46:47.716Z,6.60
2023-01-13T05:49:15.523Z,7.00
2023-01-13T05:51:43.359Z,7.70
2023-01-13T05:54:12.279Z,7.57
2023-01-13T05:56:40.003Z,6.60
2023-01-13T05:59:07.713Z,7.57
2023-01-13T06:01:37.303Z,8.33
2023-01-13T06:04:06.027Z,8.87
2023-01-13T06:06:33.716Z,12.07
2023-01-13T06:09:01.575Z,9.97
2023-01-13T06:11:29.285Z,9.80
2023-01-13T06:13:57.383Z,10.20
2023-01-13T06:16:32.013Z,11.37
2023-01-13T06:19:01.500Z,12.50
2023-01-13T06:21:32.961Z,11.30
2023-01-13T06:24:01.174Z,11.70
2023-01-13T06:26:30.660Z,12.73
2023-01-13T06:28:58.566Z,10.23
2023-01-13T06:31:28.833Z,11.27
2023-01-13T06:33:59.171Z,11.33
2023-01-13T06:36:30.906Z,10.57
2023-01-13T06:39:00.812Z,11.03
2023-01-13T06:41:44.536Z,10.90
2023-01-13T06:44:12.797Z,11.23
2023-01-13T06:46:40.574Z,9.53
2023-01-13T06:49:08.447Z,16.50
2023-01-13T06:51:39.956Z,15.13
2023-01-13T06:54:07.709Z,12.70
2023-01-13T06:56:35.805Z,11.90
2023-01-13T06:59:03.725Z,12.90
2023-01-13T07:01:31.653Z,13.60
2023-01-13T07:04:01.754Z,11.13
2023-01-13T07:06:30.254Z,10.80
2023-01-13T07:08:59.904Z,11.60
2023-01-13T07:11:28.091Z,10.17
2023-01-13T07:14:14.062Z,13.10
2023-01-13T07:16:44.549Z,11.80
2023-01-13T07:19:12.410Z,10.93
2023-01-13T07:21:40.153Z,17.27
2023-01-13T07:24:09.700Z,15.70
2023-01-13T07:26:38.227Z,12.83
2023-01-13T07:29:06.042Z,14.73
2023-01-13T07:31:34.135Z,13.43
2023-01-13T07:34:01.825Z,12.87
2023-01-13T07:36:29.738Z,13.03
2023-01-13T07:38:59.150Z,14.67
2023-01-13T07:41:46.329Z,14.80
2023-01-13T07:44:14.435Z,10.57
2023-01-13T07:46:42.266Z,9.77
2023-01-13T07:49:10.333Z,9.43
2023-01-13T07:51:38.772Z,10.43
2023-01-13T07:54:06.944Z,11.07
2023-01-13T07:56:36.027Z,9.83
2023-01-13T07:59:03.831Z,9.57
2023-01-13T08:01:32.209Z,13.17
2023-01-13T08:04:00.167Z,8.50
2023-01-13T08:06:28.104Z,8.37
2023-01-13T08:08:56.621Z,9.40
2023-01-13T08:11:25.541Z,8.30
2023-01-13T08:13:58.743Z,8.77
2023-01-13T08:16:28.023Z,7.00
2023-01-13T08:18:55.721Z,9.47
2023-01-13T08:21:23.756Z,8.50
2023-01-13T08:23:53.869Z,10.17
2023-01-13T08:26:21.749Z,7.97
2023-01-13T08:28:50.118Z,8.40
2023-01-13T08:31:20.309Z,8.70
2023-01-13T08:33:48.457Z,8.70
2023-01-13T08:36:16.476Z,7.83
2023-01-13T08:38:45.932Z,8.17
2023-01-13T08:41:14.489Z,8.53
2023-01-13T08:43:42.306Z,10.30
2023-01-13T08:46:10.213Z,7.67
2023-01-13T08:48:39.665Z,8.13
2023-01-13T08:51:09.071Z,8.13
2023-01-13T08:53:36.794Z,7.47
2023-01-13T08:56:07.908Z,6.50
2023-01-13T08:58:35.764Z,10.47
2023-01-13T09:01:05.996Z,9.27
2023-01-13T09:03:33.905Z,7.67
2023-01-13T09:06:03.140Z,6.63
2023-01-13T09:08:31.017Z,6.70
2023-01-13T09:10:58.815Z,10.17
2023-01-13T09:13:25.787Z,10.47
2023-01-13T09:15:56.641Z,7.60
2023-01-13T09:18:24.996Z,9.83
2023-01-13T09:20:52.949Z,8.03
2023-01-13T09:23:22.061Z,9.33
2023-01-13T09:25:50.392Z,11.07
2023-01-13T09:28:18.292Z,7.77
2023-01-13T09:30:46.004Z,12.17
2023-01-13T09:33:36.892Z,7.40
2023-01-13T09:36:04.742Z,4.67
2023-01-13T09:38:33.884Z,6.93
2023-01-13T09:41:01.616Z,12.40
2023-01-13T09:43:49.625Z,7.07
2023-01-13T09:46:33.281Z,7.60
2023-01-13T09:49:03.899Z,9.67
2023-01-13T09:51:32.912Z,11.70
2023-01-13T09:54:04.118Z,7.23
2023-01-13T09:56:34.479Z,9.23
2023-01-13T09:59:02.480Z,7.67
2023-01-13T10:01:37.984Z,6.23
2023-01-13T10:04:07.251Z,9.00
2023-01-13T10:06:38.950Z,9.13
2023-01-13T10:09:13.945Z,6.93
2023-01-13T10:12:01.436Z,6.80
2023-01-13T10:14:33.864Z,7.47
2023-01-13T10:17:05.376Z,4.13
2023-01-13T10:19:35.916Z,5.03
2023-01-13T10:22:20.867Z,5.47
2023-01-13T10:25:06.565Z,4.77
2023-01-13T10:27:36.505Z,4.17
2023-01-13T10:30:18.505Z,3.50
2023-01-13T10:32:48.852Z,4.97
2023-01-13T10:35:16.739Z,6.70
2023-01-13T10:37:56.912Z,9.07
2023-01-13T10:40:25.736Z,7.90
2023-01-13T10:43:07.186Z,6.60
2023-01-13T10:45:35.268Z,6.60
2023-01-13T10:48:07.404Z,4.37
2023-01-13T10:50:36.532Z,5.80
2023-01-13T10:53:17.859Z,8.00
2023-01-13T10:55:58.757Z,6.33
2023-01-13T10:58:28.392Z,4.77
2023-01-13T11:01:03.145Z,5.77
2023-01-13T11:03:36.975Z,6.80
2023-01-13T11:06:05.006Z,4.13
2023-01-13T11:08:41.433Z,6.77
2023-01-13T11:11:25.935Z,5.23
2023-01-13T11:14:14.495Z,3.07
2023-01-13T11:16:53.138Z,4.63
2023-01-13T11:19:22.746Z,4.37
2023-01-13T11:21:52.340Z,2.97
2023-01-13T11:24:23.151Z,3.27
2023-01-13T11:26:54.228Z,2.73
2023-01-13T11:29:27.227Z,3.00
2023-01-13T11:32:01.850Z,4.63
2023-01-13T11:34:31.330Z,5.03
2023-01-13T11:37:00.551Z,4.10
2023-01-13T11:39:32.010Z,5.77
2023-01-13T11:42:19.013Z,6.97
2023-01-13T11:44:51.992Z,9.27
2023-01-13T11:47:22.474Z,7.47
2023-01-13T11:49:50.466Z,7.73
2023-01-13T11:52:20.459Z,6.23
2023-01-13T11:54:55.020Z,5.57
2023-01-13T11:57:32.958Z,5.60
2023-01-13T12:00:23.150Z,5.23
2023-01-13T12:02:54.663Z,6.43
2023-01-13T12:05:26.680Z,4.83
2023-01-13T12:07:59.180Z,3.03
2023-01-13T12:10:35.591Z,3.77
2023-01-13T12:13:08.606Z,4.33
2023-01-13T12:15:45.253Z,4.10
2023-01-13T12:18:19.959Z,3.50
2023-01-13T12:20:53.106Z,3.80
2023-01-13T12:23:33.762Z,3.93
2023-01-13T12:26:05.808Z,3.80
2023-01-13T12:28:36.711Z,5.40
2023-01-13T12:31:07.616Z,5.47
2023-01-13T12:33:44.749Z,5.70
2023-01-13T12:36:17.073Z,8.63
2023-01-13T12:38:47.604Z,7.53
2023-01-13T12:41:18.141Z,9.70
2023-01-13T12:44:05.251Z,8.07
2023-01-13T12:46:45.169Z,11.23
2023-01-13T12:49:19.728Z,19.13
2023-01-13T12:52:18.659Z,8.50
2023-01-13T12:55:02.787Z,6.47
2023-01-13T12:57:31.818Z,9.40
2023-01-13T13:00:14.185Z,11.40
2023-01-13T13:02:43.938Z,8.43
2023-01-13T13:05:30.597Z,9.47
2023-01-13T13:08:04.929Z,8.07
2023-01-13T13:10:35.069Z,12.00
2023-01-13T13:13:20.355Z,7.07
2023-01-13T13:15:49.163Z,8.83
2023-01-13T13:18:27.540Z,10.30
2023-01-13T13:21:06.233Z,10.63
2023-01-13T13:23:39.732Z,8.07
2023-01-13T13:26:15.962Z,7.10
2023-01-13T13:28:48.385Z,7.60
2023-01-13T13:31:20.707Z,8.57
2023-01-13T13:34:00.377Z,8.10
2023-01-13T13:36:43.026Z,7.60
2023-01-13T13:39:39.861Z,8.60
2023-01-13T13:42:26.835Z,9.90
2023-01-13T13:45:12.372Z,10.40
2023-01-13T13:47:40.621Z,6.77
2023-01-13T13:50:10.818Z,9.43
2023-01-13T13:52:41.147Z,8.53
2023-01-13T13:55:12.713Z,7.53
2023-01-13T13:57:42.640Z,6.87
2023-01-13T14:00:20.753Z,5.93
2023-01-13T14:02:49.933Z,6.20
2023-01-13T14:05:20.435Z,6.50
2023-01-13T14:07:49.729Z,6.30
2023-01-13T14:10:19.851Z,9.13
2023-01-13T14:12:47.874Z,10.40
2023-01-13T14:15:33.000Z,7.37
2023-01-13T14:18:01.900Z,6.50
2023-01-13T14:20:31.064Z,8.03
2023-01-13T14:23:01.810Z,9.83
2023-01-13T14:25:31.055Z,12.37
2023-01-13T14:28:00.123Z,10.73
2023-01-13T14:30:29.232Z,7.10
2023-01-13T14:32:57.298Z,8.67
2023-01-13T14:35:25.442Z,8.37
2023-01-13T14:38:02.165Z,9.00
2023-01-13T14:40:46.895Z,8.23
2023-01-13T14:43:16.078Z,8.30
2023-01-13T14:45:57.748Z,12.97
2023-01-13T14:48:31.886Z,10.40
2023-01-13T14:51:02.514Z,8.33
2023-01-13T14:53:36.228Z,8.67
2023-01-13T14:56:18.859Z,7.47
2023-01-13T14:58:48.396Z,9.27
2023-01-13T15:01:28.602Z,9.50
2023-01-13T15:03:56.754Z,16.77
2023-01-13T15:06:25.517Z,13.97
2023-01-13T15:08:54.606Z,16.13
2023-01-13T15:11:25.793Z,14.23
2023-01-13T15:13:58.615Z,15.60
2023-01-13T15:16:27.024Z,18.13
2023-01-13T15:18:55.373Z,20.77
2023-01-13T15:21:23.578Z,25.00
2023-01-13T15:23:51.708Z,25.00
2023-01-13T15:26:34.295Z,29.03
2023-01-13T15:29:05.287Z,26.60
2023-01-13T15:31:39.149Z,23.27
2023-01-13T15:34:06.915Z,23.50
2023-01-13T15:36:37.283Z,24.63
2023-01-13T15:39:05.079Z,26.73
2023-01-13T15:42:04.703Z,22.73
2023-01-13T15:44:51.182Z,21.97
2023-01-13T15:47:18.925Z,24.13
2023-01-13T15:49:47.736Z,27.30
2023-01-13T15:52:19.139Z,28.43
2023-01-13T15:54:46.904Z,27.87
2023-01-13T15:57:22.348Z,20.27
2023-01-13T15:59:52.203Z,20.57
2023-01-13T16:02:20.333Z,20.30
2023-01-13T16:04:48.341Z,18.57
2023-01-13T16:07:17.403Z,18.97
2023-01-13T16:09:46.036Z,17.70
2023-01-13T16:12:14.160Z,17.20
2023-01-13T16:14:42.219Z,17.20
2023-01-13T16:17:15.250Z,15.83
2023-01-13T16:19:43.202Z,17.23
2023-01-13T16:22:12.626Z,22.93
2023-01-13T16:24:42.187Z,15.50
2023-01-13T16:27:14.561Z,19.77
2023-01-13T16:29:43.517Z,17.07
2023-01-13T16:32:11.181Z,18.20
2023-01-13T16:34:40.703Z,18.30
2023-01-13T16:37:14.162Z,19.07
2023-01-13T16:39:42.099Z,21.73
2023-01-13T16:42:09.911Z,18.40
2023-01-13T16:44:37.690Z,18.17
2023-01-13T16:47:05.385Z,20.00
2023-01-13T16:49:34.709Z,20.57
2023-01-13T16:52:03.805Z,19.93
2023-01-13T16:54:32.140Z,19.43
2023-01-13T16:56:59.835Z,19.53
2023-01-13T16:59:27.607Z,20.97
2023-01-13T17:01:55.358Z,19.00
2023-01-13T17:04:23.662Z,19.03
2023-01-13T17:06:55.585Z,18.47
2023-01-13T17:09:27.514Z,18.90
2023-01-13T17:11:55.507Z,26.00
2023-01-13T17:14:24.015Z,28.90
2023-01-13T17:16:52.698Z,33.10
2023-01-13T17:19:22.205Z,28.90
2023-01-13T17:21:51.162Z,34.40
2023-01-13T17:24:19.681Z,36.80
2023-01-13T17:26:49.540Z,33.40
2023-01-13T17:29:18.416Z,32.07
2023-01-13T17:31:46.513Z,35.70
2023-01-13T17:34:14.893Z,33.67
2023-01-13T17:36:43.601Z,27.00
2023-01-13T17:39:15.941Z,28.13
2023-01-13T17:41:45.033Z,25.23
2023-01-13T17:44:14.859Z,22.23
2023-01-13T17:46:43.122Z,23.43
2023-01-13T17:49:10.993Z,23.33
2023-01-13T17:51:39.774Z,30.03
2023-01-13T17:54:07.493Z,22.53
2023-01-13T17:56:35.435Z,21.97
2023-01-13T17:59:03.058Z,25.27
2023-01-13T18:01:34.796Z,25.70
2023-01-13T18:04:02.860Z,30.20
2023-01-13T18:06:30.995Z,42.60
2023-01-13T18:08:59.707Z,46.03
2023-01-13T18:11:27.597Z,40.10
2023-01-13T18:14:02.982Z,30.87
2023-01-13T18:16:33.024Z,31.83
2023-01-13T18:19:14.909Z,29.03
2023-01-13T18:22:00.161Z,23.87
2023-01-13T18:24:44.868Z,21.23
2023-01-13T18:27:23.690Z,23.03
2023-01-13T18:29:52.114Z,27.47
2023-01-13T18:32:22.383Z,20.57
2023-01-13T18:34:53.920Z,20.07
2023-01-13T18:37:27.081Z,21.17
2023-01-13T18:39:54.857Z,16.40
2023-01-13T18:42:40.866Z,17.53
2023-01-13T18:45:10.572Z,17.97
2023-01-13T18:47:42.327Z,17.43
2023-01-13T18:50:12.495Z,20.57
2023-01-13T18:52:40.247Z,15.83
2023-01-13T18:55:08.591Z,18.30
2023-01-13T18:57:39.379Z,24.53
2023-01-13T19:00:08.294Z,20.43
2023-01-13T19:02:36.919Z,18.80
2023-01-13T19:05:06.578Z,18.40
2023-01-13T19:07:36.253Z,25.70
2023-01-13T19:10:04.578Z,33.67
2023-01-13T19:12:33.835Z,25.90
2023-01-13T19:15:02.516Z,22.53
2023-01-13T19:17:33.613Z,20.83
2023-01-13T19:20:01.749Z,24.90
2023-01-13T19:22:33.031Z,23.93
2023-01-13T19:25:01.920Z,20.87
2023-01-13T19:27:30.056Z,19.00
2023-01-13T19:30:00.612Z,17.57
2023-01-13T19:32:30.736Z,16.97
2023-01-13T19:34:59.606Z,18.10
2023-01-13T19:37:30.609Z,15.73
2023-01-13T19:40:00.617Z,19.50
2023-01-13T19:42:46.286Z,17.63
2023-01-13T19:45:33.662Z,39.77
2023-01-13T19:48:04.848Z,19.53
2023-01-13T19:50:33.436Z,18.07
2023-01-13T19:53:01.849Z,20.67
2023-01-13T19:55:31.920Z,19.47
2023-01-13T19:58:00.161Z,21.70
2023-01-13T20:00:27.841Z,25.40
2023-01-13T20:02:57.025Z,31.37
2023-01-13T20:05:26.240Z,29.33
2023-01-13T20:07:54.095Z,28.20
2023-01-13T20:10:22.814Z,30.00
2023-01-13T20:12:52.116Z,33.83
2023-01-13T20:15:19.839Z,33.50
2023-01-13T20:17:50.680Z,33.47
2023-01-13T20:20:20.640Z,30.87
2023-01-13T20:22:49.850Z,33.40
2023-01-13T20:25:19.007Z,44.60
2023-01-13T20:27:47.381Z,47.47
2023-01-13T20:30:16.827Z,48.23
2023-01-13T20:32:45.027Z,48.93
2023-01-13T20:35:15.195Z,45.87
2023-01-13T20:37:44.256Z,40.90
2023-01-13T20:40:15.094Z,44.53
2023-01-13T20:42:45.377Z,53.43
2023-01-13T20:45:17.608Z,44.47
2023-01-13T20:47:46.915Z,43.77
2023-01-13T20:50:16.889Z,44.50
2023-01-13T20:52:45.097Z,40.13
2023-01-13T20:55:13.341Z,39.10
2023-01-13T20:57:41.297Z,42.17
2023-01-13T21:00:10.328Z,34.53
2023-01-13T21:02:39.577Z,33.67
2023-01-13T21:05:09.952Z,32.10
2023-01-13T21:07:38.098Z,24.73
2023-01-13T21:10:06.430Z,33.00
2023-01-13T21:12:57.622Z,29.27
2023-01-13T21:15:27.549Z,28.30
2023-01-13T21:18:12.588Z,30.87
2023-01-13T21:20:41.741Z,29.17
2023-01-13T21:23:10.979Z,31.00
2023-01-13T21:25:40.289Z,32.20
2023-01-13T21:28:11.551Z,35.43
2023-01-13T21:30:39.743Z,38.50
2023-01-13T21:33:07.475Z,30.33
2023-01-13T21:35:38.235Z,38.03
2023-01-13T21:38:07.359Z,37.63
2023-01-13T21:40:35.311Z,42.90
2023-01-13T21:43:20.643Z,38.10
2023-01-13T21:46:05.827Z,34.70
2023-01-13T21:48:34.246Z,38.83
2023-01-13T21:51:02.364Z,35.70
2023-01-13T21:53:31.530Z,34.00
2023-01-13T21:55:59.476Z,36.70
2023-01-13T21:58:27.322Z,37.97
2023-01-13T22:00:56.619Z,34.77
2023-01-13T22:03:25.539Z,34.87
2023-01-13T22:05:56.865Z,30.17
2023-01-13T22:08:24.811Z,32.20
2023-01-13T22:10:58.688Z,35.83
2023-01-13T22:13:44.798Z,36.47
2023-01-13T22:16:12.614Z,33.87
2023-01-13T22:18:40.576Z,31.27
2023-01-13T22:21:08.360Z,31.17
2023-01-13T22:23:37.216Z,32.97
2023-01-13T22:26:07.167Z,34.83
2023-01-13T22:28:41.205Z,36.20
2023-01-13T22:31:09.363Z,29.83
2023-01-13T22:33:36.983Z,29.80
2023-01-13T22:36:05.152Z,33.70
2023-01-13T22:38:33.674Z,34.97
2023-01-13T22:41:03.109Z,32.47
2023-01-13T22:43:32.555Z,32.33
2023-01-13T22:46:01.002Z,34.30
2023-01-13T22:48:29.490Z,35.23
2023-01-13T22:50:57.707Z,34.60
2023-01-13T22:53:25.418Z,38.10
2023-01-13T22:55:56.655Z,38.13
2023-01-13T22:58:25.510Z,33.70
2023-01-13T23:00:55.114Z,42.63
2023-01-13T23:03:24.042Z,45.80
2023-01-13T23:05:56.641Z,41.07
2023-01-13T23:08:24.355Z,46.07
2023-01-13T23:10:52.067Z,40.00
2023-01-13T23:13:20.418Z,37.40
2023-01-13T23:15:48.698Z,34.60
2023-01-13T23:18:17.881Z,38.27
2023-01-13T23:20:45.515Z,33.27
2023-01-13T23:23:13.256Z,35.37
2023-01-13T23:25:42.362Z,36.60
2023-01-13T23:28:10.992Z,39.73
2023-01-13T23:30:42.321Z,35.27
2023-01-13T23:33:10.276Z,32.00
2023-01-13T23:35:39.615Z,32.03
2023-01-13T23:38:08.645Z,34.53
2023-01-13T23:40:36.329Z,33.03
2023-01-13T23:43:04.308Z,30.90
2023-01-13T23:45:32.369Z,33.43
2023-01-13T23:48:01.143Z,32.90
2023-01-13T23:50:29.072Z,31.47
2023-01-13T23:52:58.643Z,29.77
2023-01-13T23:55:26.883Z,32.40
2023-01-13T23:57:54.876Z,31.07
